sensor_id;sensor_type;location;lat;lon;timestamp;pressure;altitude;pressure_sealevel;temperature;humidity
48424;BME280;34232;42.502;26.014;2023-12-20T00:00:05;100556.56;;;2.73;79.39
48424;BME280;34232;42.502;26.014;2023-12-20T00:02:30;100544.19;;;2.78;79.25
48424;BME280;34232;42.502;26.014;2023-12-20T00:04:56;100548.38;;;2.83;79.21
48424;BME280;34232;42.502;26.014;2023-12-20T00:07:21;100553.31;;;2.89;79.27
48424;BME280;34232;42.502;26.014;2023-12-20T00:09:46;100549.03;;;2.88;78.50
48424;BME280;34232;42.502;26.014;2023-12-20T00:12:12;100544.63;;;2.90;78.13
48424;BME280;34232;42.502;26.014;2023-12-20T00:14:37;100549.66;;;2.93;77.95
48424;BME280;34232;42.502;26.014;2023-12-20T00:17:02;100539.19;;;2.94;77.82
48424;BME280;34232;42.502;26.014;2023-12-20T00:19:28;100545.25;;;2.95;76.98
48424;BME280;34232;42.502;26.014;2023-12-20T00:21:53;100544.25;;;2.97;76.23
48424;BME280;34232;42.502;26.014;2023-12-20T00:24:19;100545.16;;;2.96;75.10
48424;BME280;34232;42.502;26.014;2023-12-20T00:26:44;100548.84;;;2.92;74.57
48424;BME280;34232;42.502;26.014;2023-12-20T00:29:09;100549.94;;;2.87;74.92
48424;BME280;34232;42.502;26.014;2023-12-20T00:31:34;100551.75;;;2.85;75.62
48424;BME280;34232;42.502;26.014;2023-12-20T00:34:00;100545.13;;;2.77;76.14
48424;BME280;34232;42.502;26.014;2023-12-20T00:36:25;100553.69;;;2.79;76.21
48424;BME280;34232;42.502;26.014;2023-12-20T00:38:50;100550.19;;;2.80;76.12
48424;BME280;34232;42.502;26.014;2023-12-20T00:41:16;100537.47;;;2.74;76.51
48424;BME280;34232;42.502;26.014;2023-12-20T00:43:41;100536.56;;;2.75;77.02
48424;BME280;34232;42.502;26.014;2023-12-20T00:46:07;100535.63;;;2.76;76.76
48424;BME280;34232;42.502;26.014;2023-12-20T00:48:32;100530.34;;;2.78;77.11
48424;BME280;34232;42.502;26.014;2023-12-20T00:50:57;100525.03;;;2.81;77.19
48424;BME280;34232;42.502;26.014;2023-12-20T00:53:22;100528.53;;;2.80;76.58
48424;BME280;34232;42.502;26.014;2023-12-20T00:55:48;100519.13;;;2.77;76.43
48424;BME280;34232;42.502;26.014;2023-12-20T00:58:13;100522.50;;;2.79;76.82
48424;BME280;34232;42.502;26.014;2023-12-20T01:00:40;100511.59;;;2.71;76.93
48424;BME280;34232;42.502;26.014;2023-12-20T01:03:06;100511.84;;;2.65;77.03
48424;BME280;34232;42.502;26.014;2023-12-20T01:05:32;100510.94;;;2.66;77.35
48424;BME280;34232;42.502;26.014;2023-12-20T01:07:57;100514.31;;;2.68;76.78
48424;BME280;34232;42.502;26.014;2023-12-20T01:10:22;100505.69;;;2.68;76.67
48424;BME280;34232;42.502;26.014;2023-12-20T01:12:47;100492.69;;;2.68;76.82
48424;BME280;34232;42.502;26.014;2023-12-20T01:15:13;100500.53;;;2.66;76.79
48424;BME280;34232;42.502;26.014;2023-12-20T01:17:38;100495.34;;;2.66;76.81
48424;BME280;34232;42.502;26.014;2023-12-20T01:20:03;100481.56;;;2.64;76.99
48424;BME280;34232;42.502;26.014;2023-12-20T01:22:29;100483.31;;;2.64;77.31
48424;BME280;34232;42.502;26.014;2023-12-20T01:24:54;100474.63;;;2.65;77.51
48424;BME280;34232;42.502;26.014;2023-12-20T01:27:19;100472.03;;;2.65;77.80
48424;BME280;34232;42.502;26.014;2023-12-20T01:29:45;100464.16;;;2.66;77.79
48424;BME280;34232;42.502;26.014;2023-12-20T01:32:10;100469.50;;;2.63;76.62
48424;BME280;34232;42.502;26.014;2023-12-20T01:34:35;100464.41;;;2.60;75.70
48424;BME280;34232;42.502;26.014;2023-12-20T01:37:01;100461.06;;;2.58;75.97
48424;BME280;34232;42.502;26.014;2023-12-20T01:39:26;100457.94;;;2.50;76.19
48424;BME280;34232;42.502;26.014;2023-12-20T01:41:52;100462.34;;;2.48;76.81
48424;BME280;34232;42.502;26.014;2023-12-20T01:44:17;100456.38;;;2.46;76.75
48424;BME280;34232;42.502;26.014;2023-12-20T01:46:42;100454.00;;;2.41;77.12
48424;BME280;34232;42.502;26.014;2023-12-20T01:49:07;100451.94;;;2.28;77.69
48424;BME280;34232;42.502;26.014;2023-12-20T01:51:33;100446.63;;;2.31;77.82
48424;BME280;34232;42.502;26.014;2023-12-20T01:53:58;100447.53;;;2.30;77.59
48424;BME280;34232;42.502;26.014;2023-12-20T01:56:25;100438.69;;;2.14;78.98
48424;BME280;34232;42.502;26.014;2023-12-20T01:58:50;100432.88;;;2.08;80.30
48424;BME280;34232;42.502;26.014;2023-12-20T02:01:16;100433.25;;;1.99;81.68
48424;BME280;34232;42.502;26.014;2023-12-20T02:03:41;100426.22;;;2.01;82.73
48424;BME280;34232;42.502;26.014;2023-12-20T02:06:07;100418.69;;;1.95;82.64
48424;BME280;34232;42.502;26.014;2023-12-20T02:08:32;100424.88;;;1.93;82.81
48424;BME280;34232;42.502;26.014;2023-12-20T02:10:58;100415.34;;;1.93;83.73
48424;BME280;34232;42.502;26.014;2023-12-20T02:13:24;100413.38;;;1.98;84.67
48424;BME280;34232;42.502;26.014;2023-12-20T02:15:50;100409.88;;;1.99;84.77
48424;BME280;34232;42.502;26.014;2023-12-20T02:18:15;100403.78;;;2.00;84.91
48424;BME280;34232;42.502;26.014;2023-12-20T02:20:41;100404.44;;;2.05;84.55
48424;BME280;34232;42.502;26.014;2023-12-20T02:23:07;100400.16;;;2.04;85.09
48424;BME280;34232;42.502;26.014;2023-12-20T02:25:32;100400.22;;;2.03;85.72
48424;BME280;34232;42.502;26.014;2023-12-20T02:27:57;100395.75;;;2.06;85.79
48424;BME280;34232;42.502;26.014;2023-12-20T02:30:23;100398.41;;;2.05;85.17
48424;BME280;34232;42.502;26.014;2023-12-20T02:32:49;100394.28;;;1.99;85.55
48424;BME280;34232;42.502;26.014;2023-12-20T02:35:14;100393.38;;;2.00;85.87
48424;BME280;34232;42.502;26.014;2023-12-20T02:37:40;100390.78;;;2.00;86.44
48424;BME280;34232;42.502;26.014;2023-12-20T02:40:05;100381.25;;;2.01;86.35
48424;BME280;34232;42.502;26.014;2023-12-20T02:42:31;100379.63;;;1.98;85.93
48424;BME280;34232;42.502;26.014;2023-12-20T02:44:56;100376.91;;;2.01;85.54
48424;BME280;34232;42.502;26.014;2023-12-20T02:47:21;100383.84;;;2.01;85.82
48424;BME280;34232;42.502;26.014;2023-12-20T02:49:47;100378.84;;;1.96;86.62
48424;BME280;34232;42.502;26.014;2023-12-20T02:52:12;100369.31;;;1.97;85.99
48424;BME280;34232;42.502;26.014;2023-12-20T02:54:37;100365.81;;;1.98;85.67
48424;BME280;34232;42.502;26.014;2023-12-20T02:57:02;100370.16;;;1.97;85.83
48424;BME280;34232;42.502;26.014;2023-12-20T02:59:28;100377.03;;;1.98;86.27
48424;BME280;34232;42.502;26.014;2023-12-20T03:01:53;100379.44;;;2.03;86.09
48424;BME280;34232;42.502;26.014;2023-12-20T03:04:18;100378.59;;;2.02;85.33
48424;BME280;34232;42.502;26.014;2023-12-20T03:06:44;100368.09;;;2.05;85.29
48424;BME280;34232;42.502;26.014;2023-12-20T03:09:09;100371.34;;;2.10;85.88
48424;BME280;34232;42.502;26.014;2023-12-20T03:11:34;100371.34;;;2.10;84.93
48424;BME280;34232;42.502;26.014;2023-12-20T03:14:00;100374.00;;;2.09;84.30
48424;BME280;34232;42.502;26.014;2023-12-20T03:16:25;100363.47;;;2.12;83.76
48424;BME280;34232;42.502;26.014;2023-12-20T03:18:50;100364.31;;;2.13;83.65
48424;BME280;34232;42.502;26.014;2023-12-20T03:21:16;100365.16;;;2.13;83.67
48424;BME280;34232;42.502;26.014;2023-12-20T03:23:41;100369.59;;;1.91;84.69
48424;BME280;34232;42.502;26.014;2023-12-20T03:26:07;100368.97;;;1.84;84.46
48424;BME280;34232;42.502;26.014;2023-12-20T03:28:33;100372.25;;;1.89;83.99
48424;BME280;34232;42.502;26.014;2023-12-20T03:30:58;100370.78;;;1.82;85.57
48424;BME280;34232;42.502;26.014;2023-12-20T03:33:23;100364.69;;;1.83;85.48
48424;BME280;34232;42.502;26.014;2023-12-20T03:35:48;100361.19;;;1.84;84.80
48424;BME280;34232;42.502;26.014;2023-12-20T03:38:14;100367.28;;;1.83;85.92
48424;BME280;34232;42.502;26.014;2023-12-20T03:40:39;100363.41;;;1.93;86.91
48424;BME280;34232;42.502;26.014;2023-12-20T03:43:05;100352.63;;;2.02;86.28
48424;BME280;34232;42.502;26.014;2023-12-20T03:45:30;100349.63;;;2.11;85.73
48424;BME280;34232;42.502;26.014;2023-12-20T03:47:55;100346.59;;;2.22;85.39
48424;BME280;34232;42.502;26.014;2023-12-20T03:50:25;100341.06;;;2.30;84.09
48424;BME280;34232;42.502;26.014;2023-12-20T03:52:50;100336.00;;;2.27;81.38
48424;BME280;34232;42.502;26.014;2023-12-20T03:55:15;100337.06;;;2.23;79.90
48424;BME280;34232;42.502;26.014;2023-12-20T03:57:41;100334.84;;;2.14;79.29
48424;BME280;34232;42.502;26.014;2023-12-20T04:00:10;100331.47;;;2.11;79.64
48424;BME280;34232;42.502;26.014;2023-12-20T04:02:39;100330.84;;;2.06;80.74
48424;BME280;34232;42.502;26.014;2023-12-20T04:05:05;100325.00;;;2.01;80.70
48424;BME280;34232;42.502;26.014;2023-12-20T04:07:30;100321.16;;;1.90;80.89
48424;BME280;34232;42.502;26.014;2023-12-20T04:09:55;100318.69;;;1.87;80.52
48424;BME280;34232;42.502;26.014;2023-12-20T04:12:21;100315.50;;;1.80;80.52
48424;BME280;34232;42.502;26.014;2023-12-20T04:14:46;100318.19;;;1.79;80.50
48424;BME280;34232;42.502;26.014;2023-12-20T04:17:11;100316.03;;;1.68;79.96
48424;BME280;34232;42.502;26.014;2023-12-20T04:19:36;100313.72;;;1.62;79.93
48424;BME280;34232;42.502;26.014;2023-12-20T04:22:02;100318.13;;;1.60;80.55
48424;BME280;34232;42.502;26.014;2023-12-20T04:24:27;100316.66;;;1.53;80.79
48424;BME280;34232;42.502;26.014;2023-12-20T04:26:52;100319.66;;;1.44;80.21
48424;BME280;34232;42.502;26.014;2023-12-20T04:29:18;100317.41;;;1.34;80.32
48424;BME280;34232;42.502;26.014;2023-12-20T04:31:43;100312.59;;;1.25;80.38
48424;BME280;34232;42.502;26.014;2023-12-20T04:34:08;100304.47;;;1.13;81.33
48424;BME280;34232;42.502;26.014;2023-12-20T04:36:33;100310.63;;;1.10;81.60
48424;BME280;34232;42.502;26.014;2023-12-20T04:38:59;100318.75;;;1.01;82.79
48424;BME280;34232;42.502;26.014;2023-12-20T04:41:24;100313.56;;;1.01;83.02
48424;BME280;34232;42.502;26.014;2023-12-20T04:43:50;100301.38;;;1.03;83.30
48424;BME280;34232;42.502;26.014;2023-12-20T04:46:15;100311.66;;;1.06;83.62
48424;BME280;34232;42.502;26.014;2023-12-20T04:48:40;100308.03;;;1.10;83.81
48424;BME280;34232;42.502;26.014;2023-12-20T04:51:06;100304.28;;;1.17;83.93
48424;BME280;34232;42.502;26.014;2023-12-20T04:53:31;100306.81;;;1.19;83.56
48424;BME280;34232;42.502;26.014;2023-12-20T04:55:56;100307.78;;;1.16;82.07
48424;BME280;34232;42.502;26.014;2023-12-20T04:58:22;100312.97;;;1.16;81.67
48424;BME280;34232;42.502;26.014;2023-12-20T05:00:47;100314.91;;;1.11;81.19
48424;BME280;34232;42.502;26.014;2023-12-20T05:03:13;100308.69;;;1.15;82.23
48424;BME280;34232;42.502;26.014;2023-12-20T05:05:38;100308.75;;;1.14;82.56
48424;BME280;34232;42.502;26.014;2023-12-20T05:08:04;100307.53;;;1.22;82.41
48424;BME280;34232;42.502;26.014;2023-12-20T05:10:29;100303.94;;;1.26;82.29
48424;BME280;34232;42.502;26.014;2023-12-20T05:12:54;100307.31;;;1.28;81.82
48424;BME280;34232;42.502;26.014;2023-12-20T05:15:19;100305.63;;;1.27;81.30
48424;BME280;34232;42.502;26.014;2023-12-20T05:17:45;100303.94;;;1.26;80.87
48424;BME280;34232;42.502;26.014;2023-12-20T05:20:10;100305.63;;;1.27;79.40
48424;BME280;34232;42.502;26.014;2023-12-20T05:22:35;100304.88;;;1.24;79.32
48424;BME280;34232;42.502;26.014;2023-12-20T05:25:01;100304.94;;;1.22;78.92
48424;BME280;34232;42.502;26.014;2023-12-20T05:27:26;100308.44;;;1.21;79.40
48424;BME280;34232;42.502;26.014;2023-12-20T05:29:51;100301.50;;;1.22;78.89
48424;BME280;34232;42.502;26.014;2023-12-20T05:32:16;100302.59;;;1.16;77.90
48424;BME280;34232;42.502;26.014;2023-12-20T05:34:42;100299.22;;;1.14;78.24
48424;BME280;34232;42.502;26.014;2023-12-20T05:37:07;100299.34;;;1.11;78.08
48424;BME280;34232;42.502;26.014;2023-12-20T05:39:32;100293.50;;;1.06;77.54
48424;BME280;34232;42.502;26.014;2023-12-20T05:41:58;100294.53;;;1.02;78.01
48424;BME280;34232;42.502;26.014;2023-12-20T05:44:23;100291.97;;;1.00;78.25
48424;BME280;34232;42.502;26.014;2023-12-20T05:46:48;100287.00;;;0.96;79.35
48424;BME280;34232;42.502;26.014;2023-12-20T05:49:13;100286.94;;;0.97;80.50
48424;BME280;34232;42.502;26.014;2023-12-20T05:51:39;100277.41;;;0.98;80.94
48424;BME280;34232;42.502;26.014;2023-12-20T05:54:04;100278.97;;;1.02;80.71
48424;BME280;34232;42.502;26.014;2023-12-20T05:56:29;100273.66;;;1.05;80.70
48424;BME280;34232;42.502;26.014;2023-12-20T05:58:55;100271.75;;;1.10;80.57
48424;BME280;34232;42.502;26.014;2023-12-20T06:01:20;100268.59;;;1.02;80.66
48424;BME280;34232;42.502;26.014;2023-12-20T06:03:45;100263.19;;;1.08;81.66
48424;BME280;34232;42.502;26.014;2023-12-20T06:06:11;100264.50;;;1.18;81.54
48424;BME280;34232;42.502;26.014;2023-12-20T06:08:37;100269.56;;;1.21;81.59
48424;BME280;34232;42.502;26.014;2023-12-20T06:11:03;100270.28;;;1.25;82.08
48424;BME280;34232;42.502;26.014;2023-12-20T06:13:28;100261.53;;;1.27;82.12
48424;BME280;34232;42.502;26.014;2023-12-20T06:15:57;100273.78;;;1.24;82.41
48424;BME280;34232;42.502;26.014;2023-12-20T06:18:22;100258.94;;;1.27;82.65
48424;BME280;34232;42.502;26.014;2023-12-20T06:20:48;100264.13;;;1.27;83.26
48424;BME280;34232;42.502;26.014;2023-12-20T06:23:13;100257.13;;;1.29;83.85
48424;BME280;34232;42.502;26.014;2023-12-20T06:25:38;100255.19;;;1.34;83.12
48424;BME280;34232;42.502;26.014;2023-12-20T06:28:04;100243.13;;;1.33;82.44
48424;BME280;34232;42.502;26.014;2023-12-20T06:30:29;100244.09;;;1.31;82.22
48424;BME280;34232;42.502;26.014;2023-12-20T06:32:55;100242.53;;;1.27;82.39
48424;BME280;34232;42.502;26.014;2023-12-20T06:35:22;100250.22;;;1.30;82.76
48424;BME280;34232;42.502;26.014;2023-12-20T06:37:47;100247.13;;;1.20;82.94
48424;BME280;34232;42.502;26.014;2023-12-20T06:40:13;100250.63;;;1.19;83.53
48424;BME280;34232;42.502;26.014;2023-12-20T06:42:38;100248.03;;;1.19;83.71
48424;BME280;34232;42.502;26.014;2023-12-20T06:45:03;100247.13;;;1.20;84.03
48424;BME280;34232;42.502;26.014;2023-12-20T06:47:29;100235.91;;;1.20;85.04
48424;BME280;34232;42.502;26.014;2023-12-20T06:49:54;100239.91;;;1.28;85.53
48424;BME280;34232;42.502;26.014;2023-12-20T06:52:20;100239.63;;;1.34;84.70
48424;BME280;34232;42.502;26.014;2023-12-20T06:54:45;100244.56;;;1.40;84.22
48424;BME280;34232;42.502;26.014;2023-12-20T06:57:10;100242.63;;;1.46;84.39
48424;BME280;34232;42.502;26.014;2023-12-20T06:59:39;100240.53;;;1.54;84.31
48424;BME280;34232;42.502;26.014;2023-12-20T07:02:05;100241.97;;;1.61;84.78
48424;BME280;34232;42.502;26.014;2023-12-20T07:04:30;100240.00;;;1.66;84.18
48424;BME280;34232;42.502;26.014;2023-12-20T07:06:56;100242.59;;;1.66;83.83
48424;BME280;34232;42.502;26.014;2023-12-20T07:09:22;100239.88;;;1.69;84.23
48424;BME280;34232;42.502;26.014;2023-12-20T07:11:47;100234.44;;;1.75;85.16
48424;BME280;34232;42.502;26.014;2023-12-20T07:14:13;100227.28;;;1.80;85.49
48424;BME280;34232;42.502;26.014;2023-12-20T07:16:39;100230.41;;;1.88;85.52
48424;BME280;34232;42.502;26.014;2023-12-20T07:19:04;100214.41;;;1.97;86.04
48424;BME280;34232;42.502;26.014;2023-12-20T07:21:29;100220.03;;;2.07;85.79
48424;BME280;34232;42.502;26.014;2023-12-20T07:23:55;100213.56;;;2.16;85.07
48424;BME280;34232;42.502;26.014;2023-12-20T07:26:20;100224.47;;;2.24;84.97
48424;BME280;34232;42.502;26.014;2023-12-20T07:28:46;100227.97;;;2.23;85.05
48424;BME280;34232;42.502;26.014;2023-12-20T07:31:11;100224.81;;;2.35;84.75
48424;BME280;34232;42.502;26.014;2023-12-20T07:33:36;100224.81;;;2.35;84.74
48424;BME280;34232;42.502;26.014;2023-12-20T07:36:01;100223.72;;;2.40;85.20
48424;BME280;34232;42.502;26.014;2023-12-20T07:38:27;100230.59;;;2.41;83.75
48424;BME280;34232;42.502;26.014;2023-12-20T07:40:52;100230.41;;;2.44;84.24
48424;BME280;34232;42.502;26.014;2023-12-20T07:43:17;100231.25;;;2.45;84.21
48424;BME280;34232;42.502;26.014;2023-12-20T07:45:43;100229.44;;;2.47;84.67
48424;BME280;34232;42.502;26.014;2023-12-20T07:48:08;100224.25;;;2.47;84.88
48424;BME280;34232;42.502;26.014;2023-12-20T07:50:33;100224.88;;;2.52;85.81
48424;BME280;34232;42.502;26.014;2023-12-20T07:52:59;100221.84;;;2.61;86.23
48424;BME280;34232;42.502;26.014;2023-12-20T07:55:25;100222.41;;;2.68;85.86
48424;BME280;34232;42.502;26.014;2023-12-20T07:57:51;100214.41;;;2.72;85.39
48424;BME280;34232;42.502;26.014;2023-12-20T08:00:16;100213.31;;;2.76;86.13
48424;BME280;34232;42.502;26.014;2023-12-20T08:02:41;100208.63;;;2.85;86.07
48424;BME280;34232;42.502;26.014;2023-12-20T08:05:07;100208.16;;;2.94;85.76
48424;BME280;34232;42.502;26.014;2023-12-20T08:07:32;100198.31;;;3.00;85.38
48424;BME280;34232;42.502;26.014;2023-12-20T08:09:58;100196.09;;;3.10;85.40
48424;BME280;34232;42.502;26.014;2023-12-20T08:12:23;100198.25;;;3.19;85.22
48424;BME280;34232;42.502;26.014;2023-12-20T08:14:50;100198.75;;;3.26;84.22
48424;BME280;34232;42.502;26.014;2023-12-20T08:17:16;100196.00;;;3.29;83.49
48424;BME280;34232;42.502;26.014;2023-12-20T08:19:43;100199.31;;;3.32;83.65
48424;BME280;34232;42.502;26.014;2023-12-20T08:22:08;100195.31;;;3.42;83.85
48424;BME280;34232;42.502;26.014;2023-12-20T08:24:34;100184.53;;;3.50;83.66
48424;BME280;34232;42.502;26.014;2023-12-20T08:26:59;100184.84;;;3.44;84.35
48424;BME280;34232;42.502;26.014;2023-12-20T08:29:24;100183.91;;;3.45;84.18
48424;BME280;34232;42.502;26.014;2023-12-20T08:31:55;100177.63;;;3.49;83.71
48424;BME280;34232;42.502;26.014;2023-12-20T08:34:21;100173.50;;;3.45;83.61
48424;BME280;34232;42.502;26.014;2023-12-20T08:36:46;100174.81;;;3.54;83.58
48424;BME280;34232;42.502;26.014;2023-12-20T08:39:11;100172.22;;;3.54;84.13
48424;BME280;34232;42.502;26.014;2023-12-20T08:41:37;100167.59;;;3.59;83.51
48424;BME280;34232;42.502;26.014;2023-12-20T08:44:02;100156.91;;;3.47;83.77
48424;BME280;34232;42.502;26.014;2023-12-20T08:46:27;100158.09;;;3.58;84.53
48424;BME280;34232;42.502;26.014;2023-12-20T08:48:53;100145.19;;;3.56;84.82
48424;BME280;34232;42.502;26.014;2023-12-20T08:51:18;100136.56;;;3.71;84.42
48424;BME280;34232;42.502;26.014;2023-12-20T08:53:44;100134.28;;;3.15;85.94
48424;BME280;34232;42.502;26.014;2023-12-20T08:56:10;100133.94;;;3.05;88.61
48424;BME280;34232;42.502;26.014;2023-12-20T08:58:35;100127.25;;;3.17;89.33
48424;BME280;34232;42.502;26.014;2023-12-20T09:01:01;100120.84;;;3.07;91.00
48424;BME280;34232;42.502;26.014;2023-12-20T09:03:26;100117.59;;;3.36;90.94
48424;BME280;34232;42.502;26.014;2023-12-20T09:05:51;100105.13;;;3.59;90.56
48424;BME280;34232;42.502;26.014;2023-12-20T09:08:16;100102.66;;;3.73;89.59
48424;BME280;34232;42.502;26.014;2023-12-20T09:10:42;100101.41;;;3.96;89.51
48424;BME280;34232;42.502;26.014;2023-12-20T09:13:07;100098.97;;;4.08;89.23
48424;BME280;34232;42.502;26.014;2023-12-20T09:15:32;100085.09;;;4.08;88.83
48424;BME280;34232;42.502;26.014;2023-12-20T09:17:59;100071.81;;;4.28;88.72
48424;BME280;34232;42.502;26.014;2023-12-20T09:20:24;100071.78;;;4.44;88.44
48424;BME280;34232;42.502;26.014;2023-12-20T09:22:49;100060.00;;;4.52;87.83
48424;BME280;34232;42.502;26.014;2023-12-20T09:25:15;100056.03;;;4.61;86.61
48424;BME280;34232;42.502;26.014;2023-12-20T09:27:42;100057.00;;;4.88;86.94
48424;BME280;34232;42.502;26.014;2023-12-20T09:30:08;100055.16;;;5.05;86.00
48424;BME280;34232;42.502;26.014;2023-12-20T09:32:33;100056.22;;;5.31;85.00
48424;BME280;34232;42.502;26.014;2023-12-20T09:34:58;100052.19;;;5.53;84.48
48424;BME280;34232;42.502;26.014;2023-12-20T09:37:27;100039.41;;;5.77;83.46
48424;BME280;34232;42.502;26.014;2023-12-20T09:39:52;100029.94;;;6.03;81.96
48424;BME280;34232;42.502;26.014;2023-12-20T09:44:58;100024.34;;;6.49;79.50
48424;BME280;34232;42.502;26.014;2023-12-20T09:47:24;100013.53;;;6.80;78.75
48424;BME280;34232;42.502;26.014;2023-12-20T09:49:50;100013.09;;;7.12;77.76
48424;BME280;34232;42.502;26.014;2023-12-20T09:52:15;100006.25;;;7.34;76.14
48424;BME280;34232;42.502;26.014;2023-12-20T09:54:42;100005.19;;;7.62;74.48
48424;BME280;34232;42.502;26.014;2023-12-20T09:57:09;99999.13;;;7.86;74.12
48424;BME280;34232;42.502;26.014;2023-12-20T09:59:34;99992.31;;;8.07;72.96
48424;BME280;34232;42.502;26.014;2023-12-20T10:01:59;99995.56;;;8.34;70.75
48424;BME280;34232;42.502;26.014;2023-12-20T10:04:28;99992.53;;;8.52;70.84
48424;BME280;34232;42.502;26.014;2023-12-20T10:06:56;99988.53;;;8.70;70.29
48424;BME280;34232;42.502;26.014;2023-12-20T10:09:22;99988.91;;;8.88;68.94
48424;BME280;34232;42.502;26.014;2023-12-20T10:11:47;99980.94;;;8.89;67.47
48424;BME280;34232;42.502;26.014;2023-12-20T10:14:12;99975.16;;;8.73;67.10
48424;BME280;34232;42.502;26.014;2023-12-20T10:16:39;99974.59;;;8.92;67.46
48424;BME280;34232;42.502;26.014;2023-12-20T10:19:05;99966.50;;;9.06;68.23
48424;BME280;34232;42.502;26.014;2023-12-20T10:21:31;99967.34;;;9.06;67.15
48424;BME280;34232;42.502;26.014;2023-12-20T10:23:56;99957.78;;;9.17;66.29
48424;BME280;34232;42.502;26.014;2023-12-20T10:26:23;99952.91;;;9.23;66.62
48424;BME280;34232;42.502;26.014;2023-12-20T10:28:55;99944.19;;;9.23;67.22
48424;BME280;34232;42.502;26.014;2023-12-20T10:31:27;99937.69;;;9.49;66.70
48424;BME280;34232;42.502;26.014;2023-12-20T10:33:53;99930.72;;;9.70;65.37
48424;BME280;34232;42.502;26.014;2023-12-20T10:36:18;99930.63;;;9.93;65.24
48424;BME280;34232;42.502;26.014;2023-12-20T10:38:43;99925.78;;;10.09;64.64
48424;BME280;34232;42.502;26.014;2023-12-20T10:41:09;99926.97;;;10.16;63.59
48424;BME280;34232;42.502;26.014;2023-12-20T10:43:35;99920.84;;;10.15;64.43
48424;BME280;34232;42.502;26.014;2023-12-20T10:46:02;99920.25;;;10.23;63.90
48424;BME280;34232;42.502;26.014;2023-12-20T10:48:28;99917.69;;;10.33;63.07
48424;BME280;34232;42.502;26.014;2023-12-20T10:50:55;99917.09;;;10.29;63.09
48424;BME280;34232;42.502;26.014;2023-12-20T10:53:21;99909.03;;;10.21;63.45
48424;BME280;34232;42.502;26.014;2023-12-20T10:55:47;99905.09;;;10.15;64.23
48424;BME280;34232;42.502;26.014;2023-12-20T10:58:15;99904.69;;;9.99;64.94
48424;BME280;34232;42.502;26.014;2023-12-20T11:00:41;99902.66;;;9.92;66.57
48424;BME280;34232;42.502;26.014;2023-12-20T11:03:09;99896.84;;;10.09;67.00
48424;BME280;34232;42.502;26.014;2023-12-20T11:05:48;99892.13;;;10.24;66.16
48424;BME280;34232;42.502;26.014;2023-12-20T11:08:20;99890.72;;;10.40;65.97
48424;BME280;34232;42.502;26.014;2023-12-20T11:13:32;99878.22;;;10.54;64.45
48424;BME280;34232;42.502;26.014;2023-12-20T11:15:58;99872.16;;;10.63;64.72
48424;BME280;34232;42.502;26.014;2023-12-20T11:18:29;99861.13;;;10.69;64.71
48424;BME280;34232;42.502;26.014;2023-12-20T11:20:55;99859.66;;;10.85;64.13
48424;BME280;34232;42.502;26.014;2023-12-20T11:23:20;99860.06;;;10.91;63.86
48424;BME280;34232;42.502;26.014;2023-12-20T11:25:52;99849.47;;;11.02;63.23
48424;BME280;34232;42.502;26.014;2023-12-20T11:28:22;99851.25;;;11.01;63.06
48424;BME280;34232;42.502;26.014;2023-12-20T11:30:48;99843.50;;;11.00;62.89
48424;BME280;34232;42.502;26.014;2023-12-20T11:33:14;99847.38;;;11.05;62.39
48424;BME280;34232;42.502;26.014;2023-12-20T11:35:40;99838.66;;;11.14;61.93
48424;BME280;34232;42.502;26.014;2023-12-20T11:38:09;99841.56;;;11.11;61.85
48424;BME280;34232;42.502;26.014;2023-12-20T11:40:35;99835.72;;;10.98;61.89
48424;BME280;34232;42.502;26.014;2023-12-20T11:43:01;99822.16;;;11.12;62.02
48424;BME280;34232;42.502;26.014;2023-12-20T11:45:26;99817.59;;;11.14;61.62
48424;BME280;34232;42.502;26.014;2023-12-20T11:47:52;99816.91;;;11.22;61.24
48424;BME280;34232;42.502;26.014;2023-12-20T11:50:21;99809.03;;;11.32;60.56
48424;BME280;34232;42.502;26.014;2023-12-20T11:52:47;99812.50;;;11.42;59.94
48424;BME280;34232;42.502;26.014;2023-12-20T11:55:12;99812.47;;;11.03;61.09
48424;BME280;34232;42.502;26.014;2023-12-20T11:57:38;99799.69;;;11.08;61.11
48424;BME280;34232;42.502;26.014;2023-12-20T12:00:03;99795.38;;;11.07;61.46
48424;BME280;34232;42.502;26.014;2023-12-20T12:02:29;99787.38;;;11.18;61.39
48424;BME280;34232;42.502;26.014;2023-12-20T12:04:55;99782.25;;;11.17;60.76
48424;BME280;34232;42.502;26.014;2023-12-20T12:07:21;99774.47;;;11.15;61.02
48424;BME280;34232;42.502;26.014;2023-12-20T12:09:47;99775.72;;;11.21;61.07
48424;BME280;34232;42.502;26.014;2023-12-20T12:12:12;99766.16;;;11.30;60.86
48424;BME280;34232;42.502;26.014;2023-12-20T12:14:38;99758.81;;;11.43;59.33
48424;BME280;34232;42.502;26.014;2023-12-20T12:17:09;99755.34;;;11.33;59.92
48424;BME280;34232;42.502;26.014;2023-12-20T12:19:34;99757.56;;;11.28;60.64
48424;BME280;34232;42.502;26.014;2023-12-20T12:22:05;99747.00;;;11.37;60.19
48424;BME280;34232;42.502;26.014;2023-12-20T12:24:37;99748.13;;;11.25;60.35
48424;BME280;34232;42.502;26.014;2023-12-20T12:27:03;99745.34;;;11.27;60.24
48424;BME280;34232;42.502;26.014;2023-12-20T12:29:28;99744.53;;;11.26;59.65
48424;BME280;34232;42.502;26.014;2023-12-20T12:31:54;99742.88;;;11.15;59.87
48424;BME280;34232;42.502;26.014;2023-12-20T12:34:19;99735.91;;;10.95;60.64
48424;BME280;34232;42.502;26.014;2023-12-20T12:36:45;99722.59;;;11.06;61.05
48424;BME280;34232;42.502;26.014;2023-12-20T12:39:14;99725.50;;;10.84;61.33
48424;BME280;34232;42.502;26.014;2023-12-20T12:41:42;99720.09;;;10.95;61.20
48424;BME280;34232;42.502;26.014;2023-12-20T12:44:08;99725.06;;;10.88;60.83
48424;BME280;34232;42.502;26.014;2023-12-20T12:46:33;99729.28;;;11.01;61.45